createdAt,value
2018-04-10T00:00:51.268Z,38.80
2018-04-10T00:01:53.742Z,39.10
2018-04-10T00:02:56.233Z,41.55
2018-04-10T00:03:58.738Z,37.08
2018-04-10T00:05:02.448Z,42.05
2018-04-10T00:06:04.950Z,42.22
2018-04-10T00:07:07.483Z,39.10
2018-04-10T00:08:10.131Z,35.58
2018-04-10T00:09:14.182Z,41.28
2018-04-10T00:10:16.670Z,42.75
2018-04-10T00:11:19.162Z,42.22
2018-04-10T00:12:21.660Z,35.28
2018-04-10T00:13:24.920Z,33.88
2018-04-10T00:14:27.405Z,46.60
2018-04-10T00:15:30.682Z,40.40
2018-04-10T00:16:33.169Z,38.05
2018-04-10T00:17:36.412Z,35.22
2018-04-10T00:18:38.899Z,35.08
2018-04-10T00:19:41.395Z,37.10
2018-04-10T00:20:44.663Z,42.42
2018-04-10T00:21:47.157Z,38.75
2018-04-10T00:22:50.410Z,39.80
2018-04-10T00:23:52.882Z,36.13
2018-04-10T00:24:55.396Z,38.72
2018-04-10T00:25:58.651Z,39.58
2018-04-10T00:27:01.147Z,36.25
2018-04-10T00:28:04.394Z,36.60
2018-04-10T00:29:07.693Z,40.70
2018-04-10T00:30:10.993Z,31.95
2018-04-10T00:31:13.493Z,38.25
2018-04-10T00:32:16.746Z,33.45
2018-04-10T00:33:19.220Z,36.00
2018-04-10T00:34:21.712Z,35.15
2018-04-10T00:35:24.974Z,37.22
2018-04-10T00:36:27.478Z,36.13
2018-04-10T00:37:29.983Z,38.47
2018-04-10T00:38:32.475Z,44.63
2018-04-10T00:39:34.956Z,31.12
2018-04-10T00:40:37.436Z,43.75
2018-04-10T00:41:40.720Z,34.22
2018-04-10T00:42:43.204Z,38.15
2018-04-10T00:43:46.455Z,36.00
2018-04-10T00:44:48.936Z,32.92
2018-04-10T00:45:51.439Z,36.83
2018-04-10T00:46:54.718Z,38.00
2018-04-10T00:47:57.235Z,33.03
2018-04-10T00:48:59.712Z,38.47
2018-04-10T00:50:02.192Z,36.42
2018-04-10T00:51:04.688Z,36.72
2018-04-10T00:52:07.188Z,41.83
2018-04-10T00:53:22.331Z,34.40
2018-04-10T00:54:24.810Z,35.10
2018-04-10T00:55:27.303Z,33.72
2018-04-10T00:56:29.795Z,31.92
2018-04-10T00:57:32.298Z,33.65
2018-04-10T00:58:34.800Z,34.15
2018-04-10T00:59:38.037Z,33.90
2018-04-10T01:00:40.520Z,33.40
2018-04-10T01:01:43.008Z,29.00
2018-04-10T01:02:45.489Z,30.45
2018-04-10T01:03:47.980Z,31.83
2018-04-10T01:04:51.220Z,35.53
2018-04-10T01:05:53.691Z,33.50
2018-04-10T01:06:56.190Z,41.35
2018-04-10T01:07:58.683Z,33.03
2018-04-10T01:09:01.166Z,30.25
2018-04-10T01:10:03.644Z,35.60
2018-04-10T01:11:06.154Z,33.85
2018-04-10T01:12:08.625Z,40.65
2018-04-10T01:13:11.183Z,30.83
2018-04-10T01:14:13.658Z,33.88
2018-04-10T01:15:16.140Z,45.03
2018-04-10T01:16:18.834Z,41.00
2018-04-10T01:17:22.084Z,33.30
2018-04-10T01:18:24.625Z,34.67
2018-04-10T01:19:27.108Z,35.75
2018-04-10T01:20:29.588Z,29.15
2018-04-10T01:21:32.070Z,36.42
2018-04-10T01:22:34.584Z,33.95
2018-04-10T01:23:37.821Z,38.38
2018-04-10T01:24:40.294Z,36.80
2018-04-10T01:25:42.766Z,32.30
2018-04-10T01:26:45.264Z,30.60
2018-04-10T01:27:47.749Z,32.85
2018-04-10T01:28:50.253Z,34.22
2018-04-10T01:29:52.758Z,37.25
2018-04-10T01:30:55.247Z,33.63
2018-04-10T01:31:57.719Z,35.03
2018-04-10T01:33:00.202Z,32.95
2018-04-10T01:34:03.465Z,38.10
2018-04-10T01:35:05.950Z,35.40
2018-04-10T01:36:09.201Z,36.95
2018-04-10T01:37:11.697Z,32.42
2018-04-10T01:38:14.184Z,38.85
2018-04-10T01:39:17.450Z,37.38
2018-04-10T01:40:19.933Z,33.28
2018-04-10T01:41:22.404Z,32.20
2018-04-10T01:42:25.594Z,33.88
2018-04-10T01:43:28.855Z,37.08
2018-04-10T01:44:31.348Z,29.63
2018-04-10T01:45:33.838Z,31.55
2018-04-10T01:46:37.098Z,32.65
2018-04-10T01:47:39.574Z,32.03
2018-04-10T01:48:42.068Z,31.52
2018-04-10T01:49:45.334Z,31.62
2018-04-10T01:50:47.826Z,34.90
2018-04-10T01:51:51.065Z,37.97
2018-04-10T01:52:53.549Z,35.20
2018-04-10T01:53:56.038Z,35.25
2018-04-10T01:54:58.522Z,33.67
2018-04-10T01:56:01.764Z,35.03
2018-04-10T01:57:04.241Z,34.45
2018-04-10T01:58:06.734Z,34.28
2018-04-10T01:59:09.215Z,32.03
2018-04-10T02:00:13.258Z,30.45
2018-04-10T02:01:15.734Z,30.45
2018-04-10T02:02:18.249Z,36.67
2018-04-10T02:03:20.722Z,31.70
2018-04-10T02:04:23.220Z,31.65
2018-04-10T02:05:26.454Z,35.28
2018-04-10T02:06:28.921Z,31.23
2018-04-10T02:07:31.406Z,30.35
2018-04-10T02:08:33.876Z,33.00
2018-04-10T02:09:36.433Z,32.95
2018-04-10T02:10:38.969Z,32.50
2018-04-10T02:11:41.516Z,33.05
2018-04-10T02:12:44.816Z,29.73
2018-04-10T02:13:47.346Z,32.67
2018-04-10T02:14:49.891Z,34.13
2018-04-10T02:15:52.417Z,38.20
2018-04-10T02:16:55.722Z,31.35
2018-04-10T02:17:58.242Z,33.17
2018-04-10T02:19:00.768Z,30.17
2018-04-10T02:20:03.313Z,44.92
2018-04-10T02:21:05.869Z,29.67
2018-04-10T02:22:08.397Z,29.27
2018-04-10T02:23:10.967Z,33.90
2018-04-10T02:24:13.491Z,34.70
2018-04-10T02:25:16.755Z,30.37
2018-04-10T02:26:19.277Z,31.58
2018-04-10T02:27:22.565Z,34.38
2018-04-10T02:28:27.115Z,29.75
2018-04-10T02:29:29.678Z,30.25
2018-04-10T02:30:32.715Z,30.48
2018-04-10T02:31:35.249Z,29.08
2018-04-10T02:32:37.774Z,34.30
2018-04-10T02:33:41.061Z,30.60
2018-04-10T02:34:44.340Z,35.72
2018-04-10T02:35:46.902Z,33.30
2018-04-10T02:36:49.424Z,32.95
2018-04-10T02:37:51.962Z,29.95
2018-04-10T02:38:55.268Z,30.08
2018-04-10T02:39:58.560Z,39.03
2018-04-10T02:41:01.101Z,33.55
2018-04-10T02:42:03.651Z,34.08
2018-04-10T02:43:06.178Z,29.12
2018-04-10T02:44:08.702Z,28.33
2018-04-10T02:45:11.321Z,29.75
2018-04-10T02:46:13.858Z,28.58
2018-04-10T02:47:16.383Z,36.28
2018-04-10T02:48:18.932Z,30.85
2018-04-10T02:49:22.247Z,32.55
2018-04-10T02:50:24.780Z,33.58
2018-04-10T02:51:28.081Z,33.67
2018-04-10T02:52:30.605Z,37.95
2018-04-10T02:53:33.127Z,33.85
2018-04-10T02:54:35.675Z,30.95
2018-04-10T02:55:38.206Z,29.10
2018-04-10T02:56:40.752Z,33.65
2018-04-10T02:57:43.275Z,30.77
2018-04-10T02:58:45.805Z,31.55
2018-04-10T02:59:48.331Z,35.90
2018-04-10T03:00:50.848Z,38.35
2018-04-10T03:01:53.376Z,36.40
2018-04-10T03:02:56.677Z,27.20
2018-04-10T03:03:59.201Z,34.85
2018-04-10T03:05:02.681Z,30.60
2018-04-10T03:06:05.203Z,34.60
2018-04-10T03:07:08.505Z,36.47
2018-04-10T03:08:11.043Z,36.40
2018-04-10T03:09:13.577Z,31.62
2018-04-10T03:10:16.097Z,32.08
2018-04-10T03:11:18.632Z,39.47
2018-04-10T03:12:21.165Z,35.78
2018-04-10T03:13:24.451Z,38.70
2018-04-10T03:14:28.334Z,36.72
2018-04-10T03:15:30.857Z,38.58
2018-04-10T03:16:33.381Z,37.55
2018-04-10T03:17:35.927Z,42.38
2018-04-10T03:18:38.448Z,35.90
2018-04-10T03:19:40.973Z,31.77
2018-04-10T03:20:43.509Z,31.35
2018-04-10T03:21:46.037Z,33.25
2018-04-10T03:22:49.336Z,34.55
2018-04-10T03:23:52.633Z,30.17
2018-04-10T03:24:55.987Z,31.42
2018-04-10T03:25:58.513Z,36.33
2018-04-10T03:27:01.045Z,33.95
2018-04-10T03:28:03.592Z,33.60
2018-04-10T03:29:06.129Z,33.22
2018-04-10T03:30:08.668Z,36.33
2018-04-10T03:31:11.965Z,36.75
2018-04-10T03:32:15.261Z,36.70
2018-04-10T03:33:17.805Z,38.28
2018-04-10T03:34:20.334Z,41.05
2018-04-10T03:35:23.618Z,36.67
2018-04-10T03:36:26.151Z,34.20
2018-04-10T03:37:28.669Z,34.72
2018-04-10T03:38:31.208Z,31.75
2018-04-10T03:39:33.732Z,31.33
2018-04-10T03:40:36.471Z,44.88
2018-04-10T03:41:38.998Z,31.17
2018-04-10T03:42:41.522Z,35.30
2018-04-10T03:43:44.051Z,36.10
2018-04-10T03:44:47.345Z,33.88
2018-04-10T03:45:50.636Z,36.25
2018-04-10T03:46:53.952Z,38.78
2018-04-10T03:47:56.526Z,36.88
2018-04-10T03:48:59.047Z,34.75
2018-04-10T03:50:01.581Z,31.52
2018-04-10T03:51:04.063Z,37.50
2018-04-10T03:52:06.534Z,34.65
2018-04-10T03:53:09.039Z,34.15
2018-04-10T03:54:12.162Z,32.88
2018-04-10T03:55:14.639Z,38.63
2018-04-10T03:56:17.117Z,33.10
2018-04-10T03:57:19.601Z,31.15
2018-04-10T03:58:22.087Z,38.90
2018-04-10T03:59:24.563Z,36.15
2018-04-10T04:00:27.047Z,36.53
2018-04-10T04:01:29.534Z,40.12
2018-04-10T04:02:32.793Z,37.20
2018-04-10T04:03:35.287Z,43.10
2018-04-10T04:04:39.339Z,41.78
2018-04-10T04:05:41.822Z,41.33
2018-04-10T04:06:44.295Z,43.08
2018-04-10T04:07:46.770Z,35.30
2018-04-10T04:08:49.264Z,38.35
2018-04-10T04:09:51.747Z,44.83
2018-04-10T04:10:54.983Z,40.08
2018-04-10T04:11:57.469Z,46.45
2018-04-10T04:12:59.944Z,35.92
2018-04-10T04:14:02.477Z,37.03
2018-04-10T04:15:04.963Z,40.65
2018-04-10T04:17:37.246Z,38.78
2018-04-10T04:18:52.320Z,42.00
2018-04-10T04:20:07.568Z,34.00
2018-04-10T04:21:22.123Z,44.05
2018-04-10T04:22:36.534Z,38.75
2018-04-10T04:23:39.039Z,35.33
2018-04-10T04:24:41.579Z,39.58
2018-04-10T04:25:44.076Z,37.08
2018-04-10T04:26:47.348Z,38.95
2018-04-10T04:27:49.856Z,33.85
2018-04-10T04:28:53.122Z,31.58
2018-04-10T04:29:55.659Z,42.55
2018-04-10T04:30:58.173Z,37.88
2018-04-10T04:32:01.456Z,35.58
2018-04-10T04:33:04.741Z,32.72
2018-04-10T04:34:07.246Z,38.88
2018-04-10T04:35:09.772Z,34.50
2018-04-10T04:36:12.397Z,34.90
2018-04-10T04:37:14.892Z,34.55
2018-04-10T04:38:17.413Z,41.40
2018-04-10T04:39:19.937Z,47.95
2018-04-10T04:40:22.465Z,35.95
2018-04-10T04:41:25.726Z,39.40
2018-04-10T04:42:28.230Z,39.25
2018-04-10T04:43:30.809Z,46.72
2018-04-10T04:44:33.350Z,40.85
2018-04-10T04:45:36.637Z,36.78
2018-04-10T04:46:39.927Z,39.28
2018-04-10T04:47:43.191Z,53.47
2018-04-10T04:48:45.696Z,40.92
2018-04-10T04:49:48.973Z,50.00
2018-04-10T04:50:52.234Z,35.05
2018-04-10T04:51:54.727Z,41.47
2018-04-10T04:52:58.005Z,43.78
2018-04-10T04:54:00.565Z,39.92
2018-04-10T04:55:03.109Z,34.13
2018-04-10T04:56:05.634Z,39.55
2018-04-10T04:57:08.908Z,42.95
2018-04-10T04:58:11.464Z,41.75
2018-04-10T04:59:13.968Z,36.33
2018-04-10T05:00:17.260Z,39.90
2018-04-10T05:01:20.564Z,43.65
2018-04-10T05:02:23.084Z,42.35
2018-04-10T05:03:25.577Z,41.55
2018-04-10T05:04:28.844Z,38.72
2018-04-10T05:05:31.362Z,43.25
2018-04-10T05:06:33.868Z,34.42
2018-04-10T05:07:36.397Z,36.78
2018-04-10T05:08:38.988Z,38.75
2018-04-10T05:09:41.491Z,40.12
2018-04-10T05:10:43.996Z,36.88
2018-04-10T05:11:47.300Z,40.17
2018-04-10T05:12:49.824Z,41.25
2018-04-10T05:13:52.333Z,31.62
2018-04-10T05:14:55.646Z,44.28
2018-04-10T05:15:58.140Z,35.13
2018-04-10T05:17:00.649Z,33.20
2018-04-10T05:18:03.158Z,32.53
2018-04-10T05:19:05.665Z,36.55
2018-04-10T05:20:08.194Z,34.53
2018-04-10T05:21:11.610Z,33.10
2018-04-10T05:22:14.158Z,39.67
2018-04-10T05:23:17.251Z,45.10
2018-04-10T05:24:19.762Z,38.67
2018-04-10T05:25:22.262Z,32.28
2018-04-10T05:26:25.535Z,39.13
2018-04-10T05:27:28.053Z,38.22
2018-04-10T05:28:30.574Z,37.33
2018-04-10T05:29:33.871Z,40.42
2018-04-10T05:30:37.139Z,40.15
2018-04-10T05:31:39.633Z,41.85
2018-04-10T05:32:42.916Z,33.88
2018-04-10T05:33:46.385Z,42.42
2018-04-10T05:34:48.914Z,47.15
2018-04-10T05:35:51.424Z,39.10
2018-04-10T05:36:53.916Z,34.40
2018-04-10T05:37:57.214Z,38.10
2018-04-10T05:39:00.473Z,42.38
2018-04-10T05:40:02.993Z,40.88
2018-04-10T05:41:05.487Z,42.78
2018-04-10T05:42:07.990Z,38.38
2018-04-10T05:43:10.581Z,48.87
2018-04-10T05:44:14.129Z,45.30
2018-04-10T05:45:16.703Z,39.75
2018-04-10T05:46:19.212Z,36.67
2018-04-10T05:47:21.710Z,48.25
2018-04-10T05:48:24.237Z,40.72
2018-04-10T05:49:26.744Z,43.97
2018-04-10T05:50:29.256Z,36.50
2018-04-10T05:51:31.752Z,47.85
2018-04-10T05:52:34.304Z,33.42
2018-04-10T05:53:36.825Z,40.03
2018-04-10T05:54:40.100Z,32.33
2018-04-10T05:55:43.380Z,32.72
2018-04-10T05:56:46.682Z,35.00
2018-04-10T05:57:49.997Z,35.22
2018-04-10T05:58:52.544Z,37.03
2018-04-10T05:59:55.819Z,38.65
2018-04-10T06:00:59.120Z,43.90
2018-04-10T06:02:02.400Z,37.53
2018-04-10T06:03:05.657Z,34.53
2018-04-10T06:04:08.170Z,38.60
2018-04-10T06:05:11.497Z,38.35
2018-04-10T06:06:14.112Z,36.08
2018-04-10T06:07:16.655Z,40.78
2018-04-10T06:08:19.186Z,43.53
2018-04-10T06:09:21.718Z,37.55
2018-04-10T06:10:24.211Z,41.10
2018-04-10T06:11:27.483Z,32.75
2018-04-10T06:12:31.490Z,41.83
2018-04-10T06:13:33.989Z,34.72
2018-04-10T06:14:36.500Z,31.90
2018-04-10T06:15:38.994Z,32.85
2018-04-10T06:16:41.509Z,31.77
2018-04-10T06:17:44.006Z,34.42
2018-04-10T06:18:46.525Z,55.50
2018-04-10T06:19:49.812Z,43.75
2018-04-10T06:20:53.077Z,36.33
2018-04-10T06:21:55.581Z,36.13
2018-04-10T06:22:58.082Z,44.00
2018-04-10T06:24:00.599Z,40.08
2018-04-10T06:25:03.901Z,35.42
2018-04-10T06:26:06.404Z,35.83
2018-04-10T06:27:08.911Z,46.37
2018-04-10T06:28:11.536Z,36.17
2018-04-10T06:29:14.097Z,30.43
2018-04-10T06:30:16.609Z,30.93
2018-04-10T06:31:19.114Z,27.67
2018-04-10T06:32:21.603Z,32.33
2018-04-10T06:33:24.146Z,25.50
2018-04-10T06:34:26.613Z,30.00
2018-04-10T06:35:29.138Z,29.80
2018-04-10T06:36:31.654Z,30.23
2018-04-10T06:37:34.148Z,29.90
2018-04-10T06:38:37.412Z,35.03
2018-04-10T06:39:39.925Z,26.20
2018-04-10T06:40:42.436Z,30.43
2018-04-10T06:41:44.963Z,33.17
2018-04-10T06:42:47.474Z,30.00
2018-04-10T06:43:50.028Z,31.90
2018-04-10T06:44:52.537Z,38.67
2018-04-10T06:45:55.072Z,36.70
2018-04-10T06:46:57.590Z,40.03
2018-04-10T06:48:01.705Z,31.57
2018-04-10T06:49:04.990Z,28.50
2018-04-10T06:50:08.280Z,36.73
2018-04-10T06:51:11.641Z,24.10
2018-04-10T06:52:14.963Z,30.80
2018-04-10T06:53:17.600Z,35.70
2018-04-10T06:54:20.101Z,35.13
2018-04-10T06:55:23.365Z,25.73
2018-04-10T06:56:25.874Z,25.17
2018-04-10T06:57:29.167Z,29.93
2018-04-10T06:58:31.723Z,26.20
2018-04-10T06:59:35.000Z,24.93
2018-04-10T07:00:37.497Z,32.47
2018-04-10T07:01:40.032Z,27.60
2018-04-10T07:02:42.551Z,24.30
2018-04-10T07:03:45.048Z,29.80
2018-04-10T07:04:47.563Z,28.50
2018-04-10T07:05:50.850Z,24.03
2018-04-10T07:06:54.170Z,25.90
2018-04-10T07:07:56.735Z,27.97
2018-04-10T07:08:59.188Z,26.83
2018-04-10T07:10:02.482Z,24.77
2018-04-10T07:11:05.751Z,26.60
2018-04-10T07:12:09.003Z,22.27
2018-04-10T07:13:11.963Z,25.00
2018-04-10T07:14:14.457Z,27.33
2018-04-10T07:15:16.987Z,25.07
2018-04-10T07:16:19.545Z,20.53
2018-04-10T07:17:22.104Z,22.83
2018-04-10T07:18:24.601Z,28.90
2018-04-10T07:19:27.133Z,25.10
2018-04-10T07:20:29.639Z,21.97
2018-04-10T07:21:32.159Z,22.83
2018-04-10T07:22:34.664Z,23.00
2018-04-10T07:23:37.940Z,22.07
2018-04-10T07:24:40.442Z,23.03
2018-04-10T07:25:42.940Z,26.13
2018-04-10T07:26:45.463Z,25.63
2018-04-10T07:27:48.792Z,22.37
2018-04-10T07:28:51.269Z,22.47
2018-04-10T07:29:53.808Z,22.93
2018-04-10T07:30:56.340Z,25.63
2018-04-10T07:31:59.615Z,25.67
2018-04-10T07:33:02.121Z,25.97
2018-04-10T07:34:05.658Z,24.60
2018-04-10T07:35:08.156Z,22.90
2018-04-10T07:36:10.948Z,26.90
2018-04-10T07:37:13.541Z,25.03
2018-04-10T07:38:16.823Z,21.50
2018-04-10T07:39:20.097Z,19.27
2018-04-10T07:40:22.613Z,22.23
2018-04-10T07:41:25.121Z,23.30
2018-04-10T07:42:27.645Z,20.20
2018-04-10T07:43:30.173Z,21.57
2018-04-10T07:44:32.712Z,19.77
2018-04-10T07:45:35.211Z,22.27
2018-04-10T07:46:37.711Z,22.97
2018-04-10T07:47:40.209Z,25.33
2018-04-10T07:48:42.726Z,23.83
2018-04-10T07:50:54.189Z,23.53
2018-04-10T07:51:56.686Z,19.13
2018-04-10T07:52:59.182Z,21.63
2018-04-10T07:54:01.697Z,22.37
2018-04-10T07:55:04.272Z,21.37
2018-04-10T07:56:06.792Z,22.00
2018-04-10T07:57:10.140Z,23.93
2018-04-10T07:58:12.899Z,20.90
2018-04-10T07:59:15.419Z,21.30
2018-04-10T08:00:18.700Z,25.23
2018-04-10T08:01:21.196Z,23.97
2018-04-10T08:02:23.702Z,22.77
2018-04-10T08:03:26.210Z,28.50
2018-04-10T08:04:28.711Z,22.47
2018-04-10T08:05:31.216Z,22.00
2018-04-10T08:06:33.711Z,22.33
2018-04-10T08:07:36.211Z,22.90
2018-04-10T08:08:39.487Z,27.90
2018-04-10T08:09:42.774Z,28.60
2018-04-10T08:10:46.043Z,21.07
2018-04-10T08:11:48.576Z,26.73
2018-04-10T08:12:51.090Z,21.07
2018-04-10T08:13:53.583Z,26.70
2018-04-10T08:14:56.892Z,22.50
2018-04-10T08:15:59.384Z,31.70
2018-04-10T08:17:01.884Z,22.60
2018-04-10T08:18:05.167Z,26.57
2018-04-10T08:19:07.662Z,24.73
2018-04-10T08:20:11.160Z,23.20
2018-04-10T08:21:14.413Z,28.20
2018-04-10T08:22:17.213Z,29.23
2018-04-10T08:23:19.745Z,24.73
2018-04-10T08:24:22.253Z,30.17
2018-04-10T08:25:24.769Z,28.47
2018-04-10T08:26:27.283Z,30.30
2018-04-10T08:27:29.807Z,27.07
2018-04-10T08:28:32.298Z,30.13
2018-04-10T08:29:34.807Z,31.30
2018-04-10T08:30:38.136Z,35.00
2018-04-10T08:31:40.633Z,25.10
2018-04-10T08:32:43.136Z,28.97
2018-04-10T08:33:45.916Z,30.67
2018-04-10T08:34:49.228Z,28.07
2018-04-10T08:35:51.723Z,28.90
2018-04-10T08:36:54.226Z,27.00
2018-04-10T08:37:56.767Z,28.50
2018-04-10T08:38:59.263Z,30.60
2018-04-10T08:40:01.792Z,31.03
2018-04-10T08:41:04.298Z,25.27
2018-04-10T08:42:06.817Z,29.07
2018-04-10T08:43:09.382Z,34.43
2018-04-10T08:44:12.058Z,23.00
2018-04-10T08:45:15.344Z,31.33
2018-04-10T08:46:18.679Z,32.60
2018-04-10T08:47:21.188Z,37.37
2018-04-10T08:48:24.462Z,34.53
2018-04-10T08:49:26.975Z,33.63
2018-04-10T08:50:29.532Z,25.00
2018-04-10T08:51:32.795Z,26.90
2018-04-10T08:52:36.063Z,30.03
2018-04-10T08:53:38.553Z,31.80
2018-04-10T08:54:41.079Z,29.33
2018-04-10T08:55:43.569Z,28.60
2018-04-10T08:56:46.108Z,23.40
2018-04-10T08:57:48.674Z,27.90
2018-04-10T08:58:51.174Z,25.63
2018-04-10T08:59:53.689Z,28.23
2018-04-10T09:00:56.960Z,22.70
2018-04-10T09:01:59.469Z,25.00
2018-04-10T09:03:01.954Z,26.67
2018-04-10T09:04:04.444Z,28.00
2018-04-10T09:05:06.970Z,26.57
2018-04-10T09:06:10.273Z,24.17
2018-04-10T09:07:12.830Z,23.40
2018-04-10T09:08:16.110Z,28.00
2018-04-10T09:09:19.401Z,27.40
2018-04-10T09:10:22.719Z,28.80
2018-04-10T09:11:25.238Z,26.47
2018-04-10T09:12:27.733Z,27.10
2018-04-10T09:13:31.018Z,23.10
2018-04-10T09:14:33.530Z,31.10
2018-04-10T09:15:36.062Z,27.40
2018-04-10T09:16:39.372Z,24.73
2018-04-10T09:17:41.886Z,25.97
2018-04-10T09:18:44.403Z,29.87
2018-04-10T09:19:46.923Z,24.90
2018-04-10T09:20:49.457Z,29.43
2018-04-10T09:21:51.992Z,29.60
2018-04-10T09:22:54.506Z,24.60
2018-04-10T09:23:57.014Z,23.07
2018-04-10T09:24:59.527Z,28.60
2018-04-10T09:26:02.038Z,26.10
2018-04-10T09:27:04.593Z,25.53
2018-04-10T09:28:07.132Z,24.07
2018-04-10T09:29:10.702Z,21.73
2018-04-10T09:30:13.172Z,22.73
2018-04-10T09:31:15.742Z,21.77
2018-04-10T09:32:18.346Z,24.43
2018-04-10T09:33:20.858Z,24.60
2018-04-10T09:34:23.359Z,23.93
2018-04-10T09:35:25.854Z,24.37
2018-04-10T09:36:29.129Z,27.87
2018-04-10T09:37:32.409Z,24.43
2018-04-10T09:38:34.921Z,20.40
2018-04-10T09:39:37.424Z,20.67
2018-04-10T09:40:39.983Z,29.20
2018-04-10T09:41:42.474Z,25.83
2018-04-10T09:42:44.991Z,25.73
2018-04-10T09:43:47.515Z,23.90
2018-04-10T09:44:50.048Z,31.07
2018-04-10T09:45:52.553Z,24.60
2018-04-10T09:46:55.057Z,23.80
2018-04-10T09:47:58.336Z,28.13
2018-04-10T09:49:01.609Z,27.83
2018-04-10T09:50:04.104Z,26.40
2018-04-10T09:51:07.379Z,25.37
2018-04-10T09:52:10.657Z,25.07
2018-04-10T09:53:13.338Z,26.23
2018-04-10T09:54:15.835Z,25.80
2018-04-10T09:55:18.332Z,31.37
2018-04-10T09:56:20.856Z,25.40
2018-04-10T09:57:24.138Z,20.27
2018-04-10T09:58:26.645Z,21.07
2018-04-10T09:59:29.154Z,27.53
2018-04-10T10:00:37.476Z,28.80
2018-04-10T10:01:40.744Z,24.43
2018-04-10T10:02:43.254Z,23.57
2018-04-10T10:03:46.545Z,21.73
2018-04-10T10:04:49.833Z,27.50
2018-04-10T10:05:53.101Z,20.67
2018-04-10T10:06:55.608Z,25.27
2018-04-10T10:07:58.107Z,26.83
2018-04-10T10:09:00.638Z,26.73
2018-04-10T10:10:03.150Z,23.43
2018-04-10T10:11:05.643Z,24.40
2018-04-10T10:12:08.149Z,19.90
2018-04-10T10:13:10.841Z,21.27
2018-04-10T10:14:13.408Z,18.83
2018-04-10T10:15:15.921Z,17.40
2018-04-10T10:16:18.741Z,16.70
2018-04-10T10:17:21.267Z,27.03
2018-04-10T10:18:23.763Z,25.03
2018-04-10T10:19:27.084Z,20.50
2018-04-10T10:20:29.595Z,18.03
2018-04-10T10:21:32.108Z,18.33
2018-04-10T10:22:35.382Z,17.63
2018-04-10T10:23:38.649Z,22.53
2018-04-10T10:24:42.687Z,19.00
2018-04-10T10:25:45.961Z,20.47
2018-04-10T10:26:49.240Z,20.50
2018-04-10T10:27:51.758Z,17.07
2018-04-10T10:28:54.278Z,22.73
2018-04-10T10:29:56.832Z,22.77
2018-04-10T10:30:59.346Z,20.43
2018-04-10T10:32:02.626Z,23.73
2018-04-10T10:33:05.892Z,26.00
2018-04-10T10:34:08.415Z,27.17
2018-04-10T10:35:10.956Z,19.57
2018-04-10T10:36:14.241Z,20.50
2018-04-10T10:37:16.778Z,18.33
2018-04-10T10:38:19.310Z,21.80
2018-04-10T10:39:21.825Z,18.20
2018-04-10T10:40:24.331Z,20.13
2018-04-10T10:41:27.593Z,19.10
2018-04-10T10:42:30.092Z,21.10
2018-04-10T10:43:33.368Z,22.90
2018-04-10T10:44:36.653Z,18.63
2018-04-10T10:45:39.153Z,21.03
2018-04-10T10:46:41.710Z,23.90
2018-04-10T10:47:44.232Z,23.37
2018-04-10T10:48:46.773Z,25.33
2018-04-10T10:49:49.280Z,24.53
2018-04-10T10:50:51.788Z,28.83
2018-04-10T10:51:55.083Z,23.77
2018-04-10T10:52:58.356Z,26.60
2018-04-10T10:54:00.886Z,24.90
2018-04-10T10:55:03.384Z,26.97
2018-04-10T10:56:05.925Z,28.53
2018-04-10T10:57:08.457Z,25.70
2018-04-10T10:58:11.811Z,22.20
2018-04-10T10:59:14.328Z,28.27
2018-04-10T11:00:17.596Z,28.70
2018-04-10T11:01:20.883Z,28.03
2018-04-10T11:02:24.171Z,29.30
2018-04-10T11:03:27.448Z,37.13
2018-04-10T11:04:29.986Z,26.17
2018-04-10T11:05:32.505Z,33.87
2018-04-10T11:06:35.807Z,30.70
2018-04-10T11:07:38.352Z,27.87
2018-04-10T11:08:40.889Z,33.17
2018-04-10T11:09:43.403Z,28.40
2018-04-10T11:10:46.705Z,31.80
2018-04-10T11:11:50.005Z,29.30
2018-04-10T11:12:52.518Z,29.30
2018-04-10T11:13:55.041Z,40.57
2018-04-10T11:14:57.550Z,27.27
2018-04-10T11:16:00.079Z,30.30
2018-04-10T11:17:02.593Z,26.60
2018-04-10T11:18:05.094Z,31.97
2018-04-10T11:19:07.599Z,27.40
2018-04-10T11:20:10.330Z,30.73
2018-04-10T11:21:13.073Z,32.17
2018-04-10T11:22:15.642Z,29.57
2018-04-10T11:23:18.189Z,40.33
2018-04-10T11:24:20.716Z,30.40
2018-04-10T11:25:24.744Z,46.27
2018-04-10T11:26:28.010Z,32.30
2018-04-10T11:27:30.541Z,29.70
2018-04-10T11:28:33.047Z,32.60
2018-04-10T11:29:35.558Z,41.30
2018-04-10T11:30:38.855Z,29.97
2018-04-10T11:31:41.381Z,38.77
2018-04-10T11:32:43.962Z,36.80
2018-04-10T11:33:46.534Z,35.47
2018-04-10T11:34:49.064Z,34.93
2018-04-10T11:35:51.594Z,41.47
2018-04-10T11:36:54.867Z,30.47
2018-04-10T11:37:57.408Z,36.70
2018-04-10T11:38:59.950Z,31.80
2018-04-10T11:40:02.446Z,35.27
2018-04-10T11:41:04.984Z,34.70
2018-04-10T11:42:07.540Z,34.20
2018-04-10T11:43:10.165Z,37.17
2018-04-10T11:44:12.891Z,34.33
2018-04-10T11:45:15.682Z,35.88
2018-04-10T11:46:18.359Z,41.75
2018-04-10T11:47:20.971Z,40.65
2018-04-10T11:48:23.524Z,32.60
2018-04-10T11:49:26.054Z,36.33
2018-04-10T11:50:29.339Z,36.72
2018-04-10T11:51:32.601Z,38.90
2018-04-10T11:52:35.190Z,36.65
2018-04-10T11:53:38.502Z,40.12
2018-04-10T11:54:41.070Z,37.88
2018-04-10T11:55:43.613Z,37.47
2018-04-10T11:56:46.138Z,38.78
2018-04-10T11:57:48.670Z,42.83
2018-04-10T11:58:51.982Z,40.17
2018-04-10T11:59:54.507Z,39.33
2018-04-10T12:00:57.013Z,40.50
2018-04-10T12:01:59.570Z,43.15
2018-04-10T12:03:02.870Z,35.60
2018-04-10T12:04:05.409Z,36.90
2018-04-10T12:05:07.946Z,35.58
2018-04-10T12:06:10.654Z,39.90
2018-04-10T12:07:13.252Z,37.95
2018-04-10T12:08:16.543Z,35.35
2018-04-10T12:09:19.773Z,39.53
2018-04-10T12:10:22.305Z,36.33
2018-04-10T12:11:24.831Z,40.58
2018-04-10T12:12:27.337Z,39.80
2018-04-10T12:13:30.647Z,41.33
2018-04-10T12:14:33.320Z,38.97
2018-04-10T12:15:35.827Z,40.60
2018-04-10T12:16:38.341Z,36.80
2018-04-10T12:17:41.616Z,40.28
2018-04-10T12:18:44.906Z,36.10
2018-04-10T12:19:48.246Z,38.15
2018-04-10T12:20:50.798Z,34.88
2018-04-10T12:21:53.324Z,39.50
2018-04-10T12:22:55.849Z,33.78
2018-04-10T12:23:58.365Z,36.33
2018-04-10T12:25:00.932Z,37.75
2018-04-10T12:26:03.483Z,36.92
2018-04-10T12:27:06.005Z,45.22
2018-04-10T12:28:08.557Z,31.48
2018-04-10T12:29:12.214Z,35.13
2018-04-10T12:30:14.769Z,32.53
2018-04-10T12:31:17.303Z,38.17
2018-04-10T12:32:20.602Z,38.77
2018-04-10T12:33:23.883Z,45.83
2018-04-10T12:34:27.181Z,37.57
2018-04-10T12:35:30.475Z,38.75
2018-04-10T12:36:33.792Z,32.73
2018-04-10T12:37:36.321Z,33.90
2018-04-10T12:38:38.851Z,33.30
2018-04-10T12:39:41.394Z,36.92
2018-04-10T12:40:43.919Z,47.60
2018-04-10T12:41:46.572Z,36.85
2018-04-10T12:42:49.219Z,35.28
2018-04-10T12:43:51.823Z,37.33
2018-04-10T12:44:54.377Z,31.67
2018-04-10T12:45:56.895Z,30.08
2018-04-10T12:47:00.199Z,31.95
2018-04-10T12:48:02.715Z,34.65
2018-04-10T12:49:05.247Z,32.33
2018-04-10T12:50:07.756Z,34.38
2018-04-10T12:51:10.472Z,34.70
2018-04-10T12:52:13.997Z,33.85
2018-04-10T12:53:16.666Z,35.20
2018-04-10T12:54:19.195Z,38.78
2018-04-10T12:55:21.763Z,33.67
2018-04-10T12:56:24.297Z,39.60
2018-04-10T12:57:26.830Z,34.53
2018-04-10T12:58:30.113Z,34.80
2018-04-10T12:59:33.405Z,35.55
2018-04-10T13:00:36.710Z,46.37
2018-04-10T13:01:39.238Z,40.30
2018-04-10T13:02:43.264Z,37.20
2018-04-10T13:03:46.770Z,35.45
2018-04-10T13:04:49.341Z,36.13
2018-04-10T13:05:52.644Z,38.92
2018-04-10T13:06:55.175Z,37.42
2018-04-10T13:07:58.505Z,33.85
2018-04-10T13:09:01.056Z,40.05
2018-04-10T13:10:04.351Z,39.88
2018-04-10T13:11:07.637Z,39.92
2018-04-10T13:12:10.438Z,35.92
2018-04-10T13:13:12.993Z,39.70
2018-04-10T13:14:15.588Z,36.22
2018-04-10T13:15:18.336Z,34.40
2018-04-10T13:16:21.606Z,44.45
2018-04-10T13:17:24.909Z,34.65
2018-04-10T13:18:28.209Z,42.22
2018-04-10T13:19:30.735Z,32.88
2018-04-10T13:20:33.264Z,38.20
2018-04-10T13:21:35.789Z,40.53
2018-04-10T13:22:38.372Z,39.60
2018-04-10T13:23:40.893Z,39.25
2018-04-10T13:24:43.544Z,36.58
2018-04-10T13:25:46.285Z,37.50
2018-04-10T13:26:49.576Z,34.58
2018-04-10T13:27:52.895Z,37.03
2018-04-10T13:28:55.475Z,36.70
2018-04-10T13:29:58.000Z,35.65
2018-04-10T13:31:00.541Z,35.83
2018-04-10T13:32:03.084Z,36.05